sensor_id;sensor_type;location;lat;lon;timestamp;temperature;humidity
18654;DHT22;9456;47.824;16.228;2023-12-20T02:58:53;-3.40;99.90
18654;DHT22;9456;47.824;16.228;2023-12-20T03:01:22;-3.70;99.90
18654;DHT22;9456;47.824;16.228;2023-12-20T03:03:51;-3.70;99.90
18654;DHT22;9456;47.824;16.228;2023-12-20T03:06:19;-3.80;99.90
18654;DHT22;9456;47.824;16.228;2023-12-20T03:08:48;-3.90;99.90
18654;DHT22;9456;47.824;16.228;2023-12-20T03:11:17;-4.00;99.90
18654;DHT22;9456;47.824;16.228;2023-12-20T03:13:46;-4.00;99.90
18654;DHT22;9456;47.824;16.228;2023-12-20T03:16:15;-4.00;99.90
18654;DHT22;9456;47.824;16.228;2023-12-20T03:18:45;-4.10;99.90
18654;DHT22;9456;47.824;16.228;2023-12-20T03:21:14;-4.10;99.90
18654;DHT22;9456;47.824;16.228;2023-12-20T03:23:43;-4.10;99.90
18654;DHT22;9456;47.824;16.228;2023-12-20T03:26:11;-4.10;99.90
18654;DHT22;9456;47.824;16.228;2023-12-20T03:28:40;-4.20;99.90
18654;DHT22;9456;47.824;16.228;2023-12-20T03:31:10;-4.20;99.90
18654;DHT22;9456;47.824;16.228;2023-12-20T03:33:39;-4.20;99.90
18654;DHT22;9456;47.824;16.228;2023-12-20T03:36:08;-4.20;99.90
18654;DHT22;9456;47.824;16.228;2023-12-20T03:38:37;-4.20;99.90
18654;DHT22;9456;47.824;16.228;2023-12-20T03:41:06;-4.20;99.90
18654;DHT22;9456;47.824;16.228;2023-12-20T03:43:35;-4.20;99.90
18654;DHT22;9456;47.824;16.228;2023-12-20T03:46:04;-4.20;99.90
18654;DHT22;9456;47.824;16.228;2023-12-20T03:48:32;-4.30;99.90
18654;DHT22;9456;47.824;16.228;2023-12-20T03:51:01;-4.30;99.90
18654;DHT22;9456;47.824;16.228;2023-12-20T03:53:30;-4.30;99.90
18654;DHT22;9456;47.824;16.228;2023-12-20T03:55:59;-4.30;99.90
18654;DHT22;9456;47.824;16.228;2023-12-20T03:58:28;-4.30;99.90
18654;DHT22;9456;47.824;16.228;2023-12-20T04:00:57;-4.30;99.90
18654;DHT22;9456;47.824;16.228;2023-12-20T04:03:25;-4.30;99.90
18654;DHT22;9456;47.824;16.228;2023-12-20T04:05:54;-4.30;99.90
18654;DHT22;9456;47.824;16.228;2023-12-20T04:08:23;-4.40;99.90
18654;DHT22;9456;47.824;16.228;2023-12-20T04:10:52;-4.40;99.90
18654;DHT22;9456;47.824;16.228;2023-12-20T04:13:21;-4.40;99.90
18654;DHT22;9456;47.824;16.228;2023-12-20T04:15:50;-4.50;99.90
18654;DHT22;9456;47.824;16.228;2023-12-20T04:18:19;-4.50;99.90
18654;DHT22;9456;47.824;16.228;2023-12-20T04:20:48;-4.50;99.90
18654;DHT22;9456;47.824;16.228;2023-12-20T04:23:16;-4.50;99.90
18654;DHT22;9456;47.824;16.228;2023-12-20T04:25:45;-4.50;99.90
18654;DHT22;9456;47.824;16.228;2023-12-20T04:28:15;-4.50;99.90
18654;DHT22;9456;47.824;16.228;2023-12-20T04:30:44;-4.50;99.90
18654;DHT22;9456;47.824;16.228;2023-12-20T04:33:13;-4.50;99.90
18654;DHT22;9456;47.824;16.228;2023-12-20T04:35:42;-4.40;99.90
18654;DHT22;9456;47.824;16.228;2023-12-20T04:38:11;-4.40;99.90
18654;DHT22;9456;47.824;16.228;2023-12-20T04:40:40;-4.40;99.90
18654;DHT22;9456;47.824;16.228;2023-12-20T04:43:09;-4.40;99.90
18654;DHT22;9456;47.824;16.228;2023-12-20T04:45:38;-4.50;99.90
18654;DHT22;9456;47.824;16.228;2023-12-20T04:48:07;-4.40;99.90
18654;DHT22;9456;47.824;16.228;2023-12-20T04:50:36;-4.40;99.90
18654;DHT22;9456;47.824;16.228;2023-12-20T04:53:05;-4.40;99.90
18654;DHT22;9456;47.824;16.228;2023-12-20T04:55:34;-4.40;99.90
18654;DHT22;9456;47.824;16.228;2023-12-20T04:58:03;-4.30;99.90
18654;DHT22;9456;47.824;16.228;2023-12-20T05:00:32;-4.20;99.90
18654;DHT22;9456;47.824;16.228;2023-12-20T05:03:01;-4.20;99.90
18654;DHT22;9456;47.824;16.228;2023-12-20T05:05:30;-4.10;99.90
18654;DHT22;9456;47.824;16.228;2023-12-20T05:07:59;-4.00;99.90
18654;DHT22;9456;47.824;16.228;2023-12-20T05:10:27;-3.90;99.90
18654;DHT22;9456;47.824;16.228;2023-12-20T05:12:57;-3.80;99.90
18654;DHT22;9456;47.824;16.228;2023-12-20T05:15:25;-3.80;99.90
18654;DHT22;9456;47.824;16.228;2023-12-20T05:17:54;-3.70;99.90
18654;DHT22;9456;47.824;16.228;2023-12-20T05:20:23;-3.60;99.90
18654;DHT22;9456;47.824;16.228;2023-12-20T05:22:52;-3.60;99.90
18654;DHT22;9456;47.824;16.228;2023-12-20T05:25:21;-3.50;99.90
18654;DHT22;9456;47.824;16.228;2023-12-20T05:27:50;-3.40;99.90
18654;DHT22;9456;47.824;16.228;2023-12-20T05:30:19;-3.40;99.90
18654;DHT22;9456;47.824;16.228;2023-12-20T05:32:48;-3.30;99.90
18654;DHT22;9456;47.824;16.228;2023-12-20T05:35:17;-3.30;99.90
18654;DHT22;9456;47.824;16.228;2023-12-20T05:37:45;-3.20;99.90
18654;DHT22;9456;47.824;16.228;2023-12-20T05:40:14;-3.20;99.90
18654;DHT22;9456;47.824;16.228;2023-12-20T05:42:43;-3.10;99.90
18654;DHT22;9456;47.824;16.228;2023-12-20T05:45:12;-3.00;99.90
18654;DHT22;9456;47.824;16.228;2023-12-20T05:47:41;-2.90;99.90
18654;DHT22;9456;47.824;16.228;2023-12-20T05:50:10;-2.90;99.90
18654;DHT22;9456;47.824;16.228;2023-12-20T05:52:39;-2.90;99.90
18654;DHT22;9456;47.824;16.228;2023-12-20T05:55:08;-2.80;99.90
18654;DHT22;9456;47.824;16.228;2023-12-20T05:57:37;-2.80;99.90
18654;DHT22;9456;47.824;16.228;2023-12-20T06:00:08;-2.80;99.90
18654;DHT22;9456;47.824;16.228;2023-12-20T06:02:37;-2.70;99.90
18654;DHT22;9456;47.824;16.228;2023-12-20T06:05:07;-2.70;99.90
18654;DHT22;9456;47.824;16.228;2023-12-20T06:07:35;-2.70;99.90
18654;DHT22;9456;47.824;16.228;2023-12-20T06:10:06;-2.70;99.90
18654;DHT22;9456;47.824;16.228;2023-12-20T06:12:35;-2.70;99.90
18654;DHT22;9456;47.824;16.228;2023-12-20T06:15:05;-2.60;99.90
18654;DHT22;9456;47.824;16.228;2023-12-20T06:17:34;-2.50;99.90
18654;DHT22;9456;47.824;16.228;2023-12-20T06:20:05;-2.50;99.90
18654;DHT22;9456;47.824;16.228;2023-12-20T06:22:34;-2.50;99.90
18654;DHT22;9456;47.824;16.228;2023-12-20T06:25:04;-2.50;99.90
18654;DHT22;9456;47.824;16.228;2023-12-20T06:27:33;-2.40;99.90
18654;DHT22;9456;47.824;16.228;2023-12-20T06:30:02;-2.30;99.90
18654;DHT22;9456;47.824;16.228;2023-12-20T06:32:31;-2.30;99.90
18654;DHT22;9456;47.824;16.228;2023-12-20T06:35:00;-2.20;99.90
18654;DHT22;9456;47.824;16.228;2023-12-20T06:37:29;-2.20;99.90
18654;DHT22;9456;47.824;16.228;2023-12-20T06:39:57;-2.10;99.90
18654;DHT22;9456;47.824;16.228;2023-12-20T06:42:26;-2.00;99.90
18654;DHT22;9456;47.824;16.228;2023-12-20T06:44:55;-2.00;99.90
18654;DHT22;9456;47.824;16.228;2023-12-20T06:47:24;-1.90;99.90
18654;DHT22;9456;47.824;16.228;2023-12-20T06:49:53;-1.90;99.90
18654;DHT22;9456;47.824;16.228;2023-12-20T06:52:22;-1.90;99.90
18654;DHT22;9456;47.824;16.228;2023-12-20T06:54:51;-1.80;99.90
18654;DHT22;9456;47.824;16.228;2023-12-20T06:57:20;-1.80;99.90
18654;DHT22;9456;47.824;16.228;2023-12-20T06:59:49;-1.80;99.90
18654;DHT22;9456;47.824;16.228;2023-12-20T07:02:18;-1.70;99.90
18654;DHT22;9456;47.824;16.228;2023-12-20T07:04:47;-1.50;99.90
18654;DHT22;9456;47.824;16.228;2023-12-20T07:07:16;-1.10;99.90
18654;DHT22;9456;47.824;16.228;2023-12-20T07:09:45;-0.70;99.90
18654;DHT22;9456;47.824;16.228;2023-12-20T07:12:13;-0.40;99.90
18654;DHT22;9456;47.824;16.228;2023-12-20T07:14:42;-0.10;99.90
18654;DHT22;9456;47.824;16.228;2023-12-20T07:17:11;0.50;99.90
18654;DHT22;9456;47.824;16.228;2023-12-20T07:19:40;1.30;99.90
18654;DHT22;9456;47.824;16.228;2023-12-20T07:22:10;1.60;99.90
18654;DHT22;9456;47.824;16.228;2023-12-20T07:24:41;1.40;99.90
18654;DHT22;9456;47.824;16.228;2023-12-20T07:27:10;1.10;99.90
18654;DHT22;9456;47.824;16.228;2023-12-20T07:29:39;0.70;99.90
18654;DHT22;9456;47.824;16.228;2023-12-20T07:32:08;0.40;99.90
18654;DHT22;9456;47.824;16.228;2023-12-20T07:34:37;0.20;99.90
18654;DHT22;9456;47.824;16.228;2023-12-20T07:37:06;0.10;99.90
18654;DHT22;9456;47.824;16.228;2023-12-20T07:39:35;0.10;99.90
18654;DHT22;9456;47.824;16.228;2023-12-20T07:42:04;0.20;99.90
18654;DHT22;9456;47.824;16.228;2023-12-20T07:44:32;0.20;99.90
18654;DHT22;9456;47.824;16.228;2023-12-20T07:47:01;0.30;99.90
18654;DHT22;9456;47.824;16.228;2023-12-20T07:49:31;0.30;99.90
18654;DHT22;9456;47.824;16.228;2023-12-20T07:52:00;0.50;99.90
18654;DHT22;9456;47.824;16.228;2023-12-20T07:54:29;0.60;99.90
18654;DHT22;9456;47.824;16.228;2023-12-20T07:56:57;0.70;99.90
18654;DHT22;9456;47.824;16.228;2023-12-20T07:59:27;0.80;99.90
18654;DHT22;9456;47.824;16.228;2023-12-20T08:01:57;0.90;99.90
18654;DHT22;9456;47.824;16.228;2023-12-20T08:04:25;1.00;99.90
18654;DHT22;9456;47.824;16.228;2023-12-20T08:06:54;0.90;99.90
18654;DHT22;9456;47.824;16.228;2023-12-20T08:09:26;0.90;99.90
18654;DHT22;9456;47.824;16.228;2023-12-20T08:11:55;1.00;99.90
18654;DHT22;9456;47.824;16.228;2023-12-20T08:14:26;1.10;99.90
18654;DHT22;9456;47.824;16.228;2023-12-20T08:16:55;1.20;99.90
18654;DHT22;9456;47.824;16.228;2023-12-20T08:19:23;1.30;99.90
18654;DHT22;9456;47.824;16.228;2023-12-20T08:21:53;1.30;99.90
18654;DHT22;9456;47.824;16.228;2023-12-20T08:24:22;1.40;99.90
18654;DHT22;9456;47.824;16.228;2023-12-20T08:26:51;1.40;99.90
18654;DHT22;9456;47.824;16.228;2023-12-20T08:29:20;1.50;99.90
18654;DHT22;9456;47.824;16.228;2023-12-20T08:31:53;1.60;99.90
18654;DHT22;9456;47.824;16.228;2023-12-20T08:34:23;1.80;99.90
18654;DHT22;9456;47.824;16.228;2023-12-20T08:36:54;2.00;99.90
18654;DHT22;9456;47.824;16.228;2023-12-20T08:39:22;2.40;99.90
18654;DHT22;9456;47.824;16.228;2023-12-20T08:41:51;3.00;99.90
18654;DHT22;9456;47.824;16.228;2023-12-20T08:44:20;3.70;99.90
18654;DHT22;9456;47.824;16.228;2023-12-20T08:46:49;4.20;99.90
18654;DHT22;9456;47.824;16.228;2023-12-20T08:49:18;4.80;99.90
18654;DHT22;9456;47.824;16.228;2023-12-20T08:51:47;5.80;99.90
18654;DHT22;9456;47.824;16.228;2023-12-20T08:54:15;6.30;99.90
18654;DHT22;9456;47.824;16.228;2023-12-20T08:56:44;6.60;99.90
18654;DHT22;9456;47.824;16.228;2023-12-20T08:59:13;6.90;99.90
18654;DHT22;9456;47.824;16.228;2023-12-20T09:01:44;7.10;99.90
18654;DHT22;9456;47.824;16.228;2023-12-20T09:04:12;7.30;99.90
18654;DHT22;9456;47.824;16.228;2023-12-20T09:06:41;7.50;99.90
18654;DHT22;9456;47.824;16.228;2023-12-20T09:09:10;7.70;99.90
18654;DHT22;9456;47.824;16.228;2023-12-20T09:11:40;7.80;99.90
18654;DHT22;9456;47.824;16.228;2023-12-20T09:14:09;7.90;99.90
18654;DHT22;9456;47.824;16.228;2023-12-20T09:16:37;8.00;99.90
18654;DHT22;9456;47.824;16.228;2023-12-20T09:19:06;8.10;99.90
18654;DHT22;9456;47.824;16.228;2023-12-20T09:21:35;8.40;99.90
18654;DHT22;9456;47.824;16.228;2023-12-20T09:24:05;8.60;99.90
18654;DHT22;9456;47.824;16.228;2023-12-20T09:26:34;8.70;99.90
18654;DHT22;9456;47.824;16.228;2023-12-20T09:29:05;8.80;99.90
18654;DHT22;9456;47.824;16.228;2023-12-20T09:31:34;9.00;99.90
18654;DHT22;9456;47.824;16.228;2023-12-20T09:34:02;9.10;99.90
18654;DHT22;9456;47.824;16.228;2023-12-20T09:36:31;9.20;99.90
18654;DHT22;9456;47.824;16.228;2023-12-20T09:39:00;9.40;99.90
18654;DHT22;9456;47.824;16.228;2023-12-20T09:41:29;9.50;99.90
18654;DHT22;9456;47.824;16.228;2023-12-20T09:43:58;9.50;99.90
18654;DHT22;9456;47.824;16.228;2023-12-20T09:46:27;9.50;99.90
18654;DHT22;9456;47.824;16.228;2023-12-20T09:48:56;9.40;99.90
18654;DHT22;9456;47.824;16.228;2023-12-20T09:51:25;9.40;99.90
18654;DHT22;9456;47.824;16.228;2023-12-20T09:53:54;9.40;99.90
18654;DHT22;9456;47.824;16.228;2023-12-20T09:56:23;9.40;99.90
18654;DHT22;9456;47.824;16.228;2023-12-20T09:58:51;9.30;99.90
18654;DHT22;9456;47.824;16.228;2023-12-20T10:01:20;9.40;99.90
18654;DHT22;9456;47.824;16.228;2023-12-20T10:03:49;9.40;99.90
18654;DHT22;9456;47.824;16.228;2023-12-20T10:06:18;9.40;99.90
18654;DHT22;9456;47.824;16.228;2023-12-20T10:08:47;9.40;99.90
18654;DHT22;9456;47.824;16.228;2023-12-20T10:11:16;9.40;99.90
18654;DHT22;9456;47.824;16.228;2023-12-20T10:13:45;9.40;99.90
18654;DHT22;9456;47.824;16.228;2023-12-20T10:16:14;9.40;99.90
18654;DHT22;9456;47.824;16.228;2023-12-20T10:18:42;9.40;99.90
18654;DHT22;9456;47.824;16.228;2023-12-20T10:21:11;9.30;99.90
18654;DHT22;9456;47.824;16.228;2023-12-20T10:23:41;9.30;99.90
18654;DHT22;9456;47.824;16.228;2023-12-20T10:26:10;9.20;99.90
18654;DHT22;9456;47.824;16.228;2023-12-20T10:28:40;9.20;99.90
18654;DHT22;9456;47.824;16.228;2023-12-20T10:31:09;9.20;99.90
18654;DHT22;9456;47.824;16.228;2023-12-20T10:33:38;9.10;99.90
18654;DHT22;9456;47.824;16.228;2023-12-20T10:36:08;9.10;99.90
18654;DHT22;9456;47.824;16.228;2023-12-20T10:38:37;9.00;99.90
18654;DHT22;9456;47.824;16.228;2023-12-20T10:41:06;9.00;99.90
18654;DHT22;9456;47.824;16.228;2023-12-20T10:43:35;8.90;99.90
18654;DHT22;9456;47.824;16.228;2023-12-20T10:46:05;8.90;99.90
18654;DHT22;9456;47.824;16.228;2023-12-20T10:48:34;8.90;99.90
18654;DHT22;9456;47.824;16.228;2023-12-20T10:51:03;8.80;99.90
18654;DHT22;9456;47.824;16.228;2023-12-20T10:53:32;8.80;99.90
18654;DHT22;9456;47.824;16.228;2023-12-20T10:56:02;8.80;99.90
18654;DHT22;9456;47.824;16.228;2023-12-20T10:58:32;8.70;99.90
18654;DHT22;9456;47.824;16.228;2023-12-20T11:01:01;8.70;99.90
18654;DHT22;9456;47.824;16.228;2023-12-20T11:03:30;8.70;99.90
18654;DHT22;9456;47.824;16.228;2023-12-20T11:05:59;8.70;99.90
18654;DHT22;9456;47.824;16.228;2023-12-20T11:08:32;8.70;99.90
18654;DHT22;9456;47.824;16.228;2023-12-20T11:11:02;8.70;99.90
18654;DHT22;9456;47.824;16.228;2023-12-20T11:13:30;8.70;99.90
18654;DHT22;9456;47.824;16.228;2023-12-20T11:15:58;8.70;99.90
18654;DHT22;9456;47.824;16.228;2023-12-20T11:18:30;8.70;99.90
18654;DHT22;9456;47.824;16.228;2023-12-20T11:21:04;8.70;99.90
18654;DHT22;9456;47.824;16.228;2023-12-20T11:23:32;8.70;99.90
18654;DHT22;9456;47.824;16.228;2023-12-20T11:26:02;8.70;99.90
18654;DHT22;9456;47.824;16.228;2023-12-20T11:28:30;8.60;99.90
18654;DHT22;9456;47.824;16.228;2023-12-20T11:31:00;8.60;99.90
18654;DHT22;9456;47.824;16.228;2023-12-20T11:33:29;8.60;99.90
18654;DHT22;9456;47.824;16.228;2023-12-20T11:35:57;8.50;99.90
18654;DHT22;9456;47.824;16.228;2023-12-20T11:38:28;8.50;99.90
18654;DHT22;9456;47.824;16.228;2023-12-20T11:40:57;8.50;99.90
18654;DHT22;9456;47.824;16.228;2023-12-20T11:43:34;8.50;99.90
18654;DHT22;9456;47.824;16.228;2023-12-20T11:46:07;8.50;99.90
18654;DHT22;9456;47.824;16.228;2023-12-20T11:48:38;8.50;99.90
18654;DHT22;9456;47.824;16.228;2023-12-20T11:51:12;8.50;99.90
18654;DHT22;9456;47.824;16.228;2023-12-20T11:53:41;8.50;99.90
18654;DHT22;9456;47.824;16.228;2023-12-20T11:56:10;8.50;99.90
18654;DHT22;9456;47.824;16.228;2023-12-20T11:58:39;8.60;99.90
18654;DHT22;9456;47.824;16.228;2023-12-20T12:01:08;8.50;99.90
18654;DHT22;9456;47.824;16.228;2023-12-20T12:03:37;8.60;99.90
18654;DHT22;9456;47.824;16.228;2023-12-20T12:06:06;8.60;99.90
18654;DHT22;9456;47.824;16.228;2023-12-20T12:08:36;8.60;99.90
18654;DHT22;9456;47.824;16.228;2023-12-20T12:11:05;8.60;99.90
18654;DHT22;9456;47.824;16.228;2023-12-20T12:13:34;8.70;99.90
18654;DHT22;9456;47.824;16.228;2023-12-20T12:16:04;8.80;99.90
18654;DHT22;9456;47.824;16.228;2023-12-20T12:18:32;8.80;99.90
18654;DHT22;9456;47.824;16.228;2023-12-20T12:21:04;8.90;99.90
18654;DHT22;9456;47.824;16.228;2023-12-20T12:23:33;8.90;99.90
18654;DHT22;9456;47.824;16.228;2023-12-20T12:26:04;8.90;99.90
18654;DHT22;9456;47.824;16.228;2023-12-20T12:28:34;8.80;99.90
18654;DHT22;9456;47.824;16.228;2023-12-20T12:31:03;8.80;99.90
18654;DHT22;9456;47.824;16.228;2023-12-20T12:33:32;8.90;99.90
18654;DHT22;9456;47.824;16.228;2023-12-20T12:36:00;8.90;99.90
18654;DHT22;9456;47.824;16.228;2023-12-20T12:38:29;8.90;99.90
18654;DHT22;9456;47.824;16.228;2023-12-20T12:40:59;9.00;99.90
18654;DHT22;9456;47.824;16.228;2023-12-20T12:43:28;9.00;99.90
18654;DHT22;9456;47.824;16.228;2023-12-20T12:45:57;9.10;99.90
18654;DHT22;9456;47.824;16.228;2023-12-20T12:48:26;9.10;99.90
18654;DHT22;9456;47.824;16.228;2023-12-20T12:50:56;9.20;99.90
18654;DHT22;9456;47.824;16.228;2023-12-20T12:53:24;9.20;99.90
18654;DHT22;9456;47.824;16.228;2023-12-20T12:55:54;9.20;99.90
18654;DHT22;9456;47.824;16.228;2023-12-20T12:58:23;9.20;99.90
18654;DHT22;9456;47.824;16.228;2023-12-20T13:00:52;9.20;99.90
18654;DHT22;9456;47.824;16.228;2023-12-20T13:03:21;9.20;99.90
18654;DHT22;9456;47.824;16.228;2023-12-20T13:05:50;9.20;99.90
18654;DHT22;9456;47.824;16.228;2023-12-20T13:08:19;9.20;99.90
18654;DHT22;9456;47.824;16.228;2023-12-20T13:10:48;9.20;99.90
18654;DHT22;9456;47.824;16.228;2023-12-20T13:13:17;9.20;99.90
18654;DHT22;9456;47.824;16.228;2023-12-20T13:15:45;9.20;99.90
18654;DHT22;9456;47.824;16.228;2023-12-20T13:18:15;9.20;99.90
18654;DHT22;9456;47.824;16.228;2023-12-20T13:20:43;9.10;99.90
18654;DHT22;9456;47.824;16.228;2023-12-20T13:23:12;9.10;99.90
18654;DHT22;9456;47.824;16.228;2023-12-20T13:25:42;9.10;99.90
18654;DHT22;9456;47.824;16.228;2023-12-20T13:28:10;9.00;99.90
18654;DHT22;9456;47.824;16.228;2023-12-20T13:30:39;9.00;99.90
18654;DHT22;9456;47.824;16.228;2023-12-20T13:33:08;8.90;99.90
18654;DHT22;9456;47.824;16.228;2023-12-20T13:35:37;8.90;99.90
18654;DHT22;9456;47.824;16.228;2023-12-20T13:38:06;8.80;99.90
18654;DHT22;9456;47.824;16.228;2023-12-20T13:40:35;8.70;99.90
18654;DHT22;9456;47.824;16.228;2023-12-20T13:43:04;8.60;99.90
18654;DHT22;9456;47.824;16.228;2023-12-20T13:45:33;8.50;99.90
18654;DHT22;9456;47.824;16.228;2023-12-20T13:48:01;8.40;99.90
18654;DHT22;9456;47.824;16.228;2023-12-20T13:50:31;8.40;99.90
18654;DHT22;9456;47.824;16.228;2023-12-20T13:53:00;8.30;99.90
18654;DHT22;9456;47.824;16.228;2023-12-20T13:55:29;8.20;99.90
18654;DHT22;9456;47.824;16.228;2023-12-20T13:57:58;8.10;99.90
18654;DHT22;9456;47.824;16.228;2023-12-20T14:00:27;8.10;99.90
18654;DHT22;9456;47.824;16.228;2023-12-20T14:02:55;8.00;99.90
18654;DHT22;9456;47.824;16.228;2023-12-20T14:05:24;8.00;99.90
18654;DHT22;9456;47.824;16.228;2023-12-20T14:07:55;7.90;99.90
18654;DHT22;9456;47.824;16.228;2023-12-20T14:10:25;7.90;99.90
18654;DHT22;9456;47.824;16.228;2023-12-20T14:12:54;7.80;99.90
18654;DHT22;9456;47.824;16.228;2023-12-20T14:15:23;7.80;99.90
18654;DHT22;9456;47.824;16.228;2023-12-20T14:17:53;7.70;99.90
18654;DHT22;9456;47.824;16.228;2023-12-20T14:20:22;7.60;99.90
18654;DHT22;9456;47.824;16.228;2023-12-20T14:22:50;7.50;99.90
18654;DHT22;9456;47.824;16.228;2023-12-20T14:25:19;7.40;99.90
18654;DHT22;9456;47.824;16.228;2023-12-20T14:27:48;7.40;99.90
18654;DHT22;9456;47.824;16.228;2023-12-20T14:30:17;7.30;99.90
18654;DHT22;9456;47.824;16.228;2023-12-20T14:32:46;7.20;99.90
18654;DHT22;9456;47.824;16.228;2023-12-20T14:35:15;7.10;99.90
18654;DHT22;9456;47.824;16.228;2023-12-20T14:37:44;7.10;99.90
18654;DHT22;9456;47.824;16.228;2023-12-20T14:40:13;7.00;99.90
18654;DHT22;9456;47.824;16.228;2023-12-20T14:42:43;7.00;99.90
18654;DHT22;9456;47.824;16.228;2023-12-20T14:45:14;6.80;99.90
18654;DHT22;9456;47.824;16.228;2023-12-20T14:47:42;6.80;99.90
18654;DHT22;9456;47.824;16.228;2023-12-20T14:50:11;6.70;99.90
18654;DHT22;9456;47.824;16.228;2023-12-20T14:52:40;6.60;99.90
18654;DHT22;9456;47.824;16.228;2023-12-20T14:55:09;6.60;99.90
18654;DHT22;9456;47.824;16.228;2023-12-20T14:57:38;6.60;99.90
18654;DHT22;9456;47.824;16.228;2023-12-20T15:00:08;6.70;99.90
18654;DHT22;9456;47.824;16.228;2023-12-20T15:02:37;6.70;99.90
18654;DHT22;9456;47.824;16.228;2023-12-20T15:05:07;6.80;99.90
18654;DHT22;9456;47.824;16.228;2023-12-20T15:07:39;6.70;99.90
18654;DHT22;9456;47.824;16.228;2023-12-20T15:10:09;6.60;99.90
18654;DHT22;9456;47.824;16.228;2023-12-20T15:12:38;6.60;99.90
18654;DHT22;9456;47.824;16.228;2023-12-20T15:15:09;6.50;99.90
18654;DHT22;9456;47.824;16.228;2023-12-20T15:17:38;6.50;99.90
18654;DHT22;9456;47.824;16.228;2023-12-20T15:20:08;6.40;99.90
18654;DHT22;9456;47.824;16.228;2023-12-20T15:22:38;6.40;99.90
18654;DHT22;9456;47.824;16.228;2023-12-20T15:25:08;6.40;99.90
18654;DHT22;9456;47.824;16.228;2023-12-20T15:27:37;6.50;99.90
18654;DHT22;9456;47.824;16.228;2023-12-20T15:30:08;6.50;99.90
18654;DHT22;9456;47.824;16.228;2023-12-20T15:32:37;6.50;99.90
18654;DHT22;9456;47.824;16.228;2023-12-20T15:35:07;6.50;99.90
18654;DHT22;9456;47.824;16.228;2023-12-20T15:37:36;6.60;99.90
18654;DHT22;9456;47.824;16.228;2023-12-20T15:40:06;6.60;99.90
18654;DHT22;9456;47.824;16.228;2023-12-20T15:42:35;6.60;99.90
18654;DHT22;9456;47.824;16.228;2023-12-20T15:45:05;6.60;99.90
18654;DHT22;9456;47.824;16.228;2023-12-20T15:47:34;6.60;99.90
18654;DHT22;9456;47.824;16.228;2023-12-20T15:50:05;6.60;99.90
18654;DHT22;9456;47.824;16.228;2023-12-20T15:52:34;6.70;99.90
18654;DHT22;9456;47.824;16.228;2023-12-20T15:55:04;6.90;99.90
18654;DHT22;9456;47.824;16.228;2023-12-20T15:57:33;7.10;99.90
18654;DHT22;9456;47.824;16.228;2023-12-20T16:00:02;7.20;99.90
18654;DHT22;9456;47.824;16.228;2023-12-20T16:02:31;7.30;99.90
18654;DHT22;9456;47.824;16.228;2023-12-20T16:05:00;7.30;99.90
18654;DHT22;9456;47.824;16.228;2023-12-20T16:07:29;7.30;99.90
18654;DHT22;9456;47.824;16.228;2023-12-20T16:09:58;7.40;99.90
18654;DHT22;9456;47.824;16.228;2023-12-20T16:12:26;7.40;99.90
18654;DHT22;9456;47.824;16.228;2023-12-20T16:14:55;7.30;99.90
18654;DHT22;9456;47.824;16.228;2023-12-20T16:17:25;7.30;99.90
18654;DHT22;9456;47.824;16.228;2023-12-20T16:19:54;7.30;99.90
18654;DHT22;9456;47.824;16.228;2023-12-20T16:22:24;7.10;99.90
18654;DHT22;9456;47.824;16.228;2023-12-20T16:24:54;7.00;99.90
18654;DHT22;9456;47.824;16.228;2023-12-20T16:27:23;6.90;99.90
18654;DHT22;9456;47.824;16.228;2023-12-20T16:29:52;7.00;99.90
18654;DHT22;9456;47.824;16.228;2023-12-20T16:32:20;7.10;99.90
18654;DHT22;9456;47.824;16.228;2023-12-20T16:34:49;7.00;99.90
18654;DHT22;9456;47.824;16.228;2023-12-20T16:37:19;7.00;99.90
18654;DHT22;9456;47.824;16.228;2023-12-20T16:39:48;7.10;99.90
18654;DHT22;9456;47.824;16.228;2023-12-20T16:42:17;7.20;99.90
18654;DHT22;9456;47.824;16.228;2023-12-20T16:44:46;7.20;99.90
18654;DHT22;9456;47.824;16.228;2023-12-20T16:47:15;7.20;99.90
18654;DHT22;9456;47.824;16.228;2023-12-20T16:49:44;7.20;99.90
18654;DHT22;9456;47.824;16.228;2023-12-20T16:52:12;7.10;99.90
18654;DHT22;9456;47.824;16.228;2023-12-20T16:54:41;7.00;99.90
18654;DHT22;9456;47.824;16.228;2023-12-20T16:57:10;6.80;99.90
18654;DHT22;9456;47.824;16.228;2023-12-20T16:59:42;6.70;99.90
18654;DHT22;9456;47.824;16.228;2023-12-20T17:02:10;6.60;99.90
18654;DHT22;9456;47.824;16.228;2023-12-20T17:04:39;6.50;99.90
18654;DHT22;9456;47.824;16.228;2023-12-20T17:07:08;6.40;99.90
18654;DHT22;9456;47.824;16.228;2023-12-20T17:09:37;6.40;99.90
18654;DHT22;9456;47.824;16.228;2023-12-20T17:12:07;6.30;99.90
18654;DHT22;9456;47.824;16.228;2023-12-20T17:14:36;6.30;99.90
18654;DHT22;9456;47.824;16.228;2023-12-20T17:17:05;6.40;99.90
18654;DHT22;9456;47.824;16.228;2023-12-20T17:19:34;6.40;99.90
18654;DHT22;9456;47.824;16.228;2023-12-20T17:22:03;6.40;99.90
18654;DHT22;9456;47.824;16.228;2023-12-20T17:24:32;6.40;99.90
18654;DHT22;9456;47.824;16.228;2023-12-20T17:27:01;6.40;99.90
18654;DHT22;9456;47.824;16.228;2023-12-20T17:29:30;6.50;99.90
18654;DHT22;9456;47.824;16.228;2023-12-20T17:31:59;6.60;99.90
18654;DHT22;9456;47.824;16.228;2023-12-20T17:34:28;6.60;99.90
18654;DHT22;9456;47.824;16.228;2023-12-20T17:36:57;6.60;99.90
18654;DHT22;9456;47.824;16.228;2023-12-20T17:39:25;6.60;99.90
18654;DHT22;9456;47.824;16.228;2023-12-20T17:41:54;6.70;99.90
18654;DHT22;9456;47.824;16.228;2023-12-20T17:44:23;6.70;99.90
18654;DHT22;9456;47.824;16.228;2023-12-20T17:46:52;6.90;99.90
18654;DHT22;9456;47.824;16.228;2023-12-20T17:49:21;7.10;99.90
18654;DHT22;9456;47.824;16.228;2023-12-20T17:51:49;7.10;99.90
18654;DHT22;9456;47.824;16.228;2023-12-20T17:54:18;7.10;99.90
18654;DHT22;9456;47.824;16.228;2023-12-20T17:56:47;7.10;99.90
18654;DHT22;9456;47.824;16.228;2023-12-20T17:59:16;7.00;99.90
18654;DHT22;9456;47.824;16.228;2023-12-20T18:01:45;7.00;99.90
18654;DHT22;9456;47.824;16.228;2023-12-20T18:04:14;6.90;99.90
18654;DHT22;9456;47.824;16.228;2023-12-20T18:06:43;6.80;99.90
18654;DHT22;9456;47.824;16.228;2023-12-20T18:09:11;6.70;99.90
18654;DHT22;9456;47.824;16.228;2023-12-20T18:11:40;6.70;99.90
18654;DHT22;9456;47.824;16.228;2023-12-20T18:14:09;6.70;99.90
18654;DHT22;9456;47.824;16.228;2023-12-20T18:16:38;6.60;99.90
18654;DHT22;9456;47.824;16.228;2023-12-20T18:19:07;6.60;99.90
18654;DHT22;9456;47.824;16.228;2023-12-20T18:21:36;6.60;99.90
18654;DHT22;9456;47.824;16.228;2023-12-20T18:24:05;6.60;99.90
18654;DHT22;9456;47.824;16.228;2023-12-20T18:26:34;6.50;99.90
18654;DHT22;9456;47.824;16.228;2023-12-20T18:29:04;6.50;99.90
18654;DHT22;9456;47.824;16.228;2023-12-20T18:31:33;6.40;99.90
18654;DHT22;9456;47.824;16.228;2023-12-20T18:34:02;6.30;99.90
18654;DHT22;9456;47.824;16.228;2023-12-20T18:36:31;6.30;99.90
18654;DHT22;9456;47.824;16.228;2023-12-20T18:39:00;6.30;99.90
18654;DHT22;9456;47.824;16.228;2023-12-20T18:41:29;6.40;99.90
18654;DHT22;9456;47.824;16.228;2023-12-20T18:44:04;6.40;99.90
18654;DHT22;9456;47.824;16.228;2023-12-20T18:46:33;6.50;99.90
18654;DHT22;9456;47.824;16.228;2023-12-20T18:49:02;6.60;99.90
18654;DHT22;9456;47.824;16.228;2023-12-20T18:51:30;6.70;99.90